Time;durP1;ratioP1;P1;durP2;ratioP2;P2;SDS_P1;SDS_P2;PMS_P1;PMS_P2;Temp;Humidity;BMP_temperature;BMP_pressure;BME280_temperature;BME280_humidity;BME280_pressure;Samples;Min_cycle;Max_cycle;Signal;HPM_P1;HPM_P2
2023/03/16 00:01:39;;;;;;;0.30;0.30;;;;;;;23.07;33.12;99374.30;1865268;75;28176;-56
2023/03/16 00:04:27;;;;;;;0.40;0.40;;;;;;;23.09;33.13;99374.89;1867887;74;27779;-57
2023/03/16 00:07:16;;;;;;;0.95;0.50;;;;;;;23.08;33.13;99366.92;1868396;75;28041;-55
2023/03/16 00:10:06;;;;;;;0.40;0.40;;;;;;;23.09;33.13;99376.79;1868731;75;27782;-56
2023/03/16 00:12:56;;;;;;;0.30;0.30;;;;;;;23.08;33.13;99386.10;1877912;75;28048;-54
2023/03/16 00:15:56;;;;;;;0.47;0.47;;;;;;;23.09;33.16;99383.64;1858879;75;27777;-56
2023/03/16 00:18:45;;;;;;;0.30;0.30;;;;;;;23.08;33.16;99383.36;1860959;75;27756;-56
2023/03/16 00:21:34;;;;;;;0.37;0.37;;;;;;;23.08;33.18;99382.80;1815953;77;28314;-56
2023/03/16 00:24:23;;;;;;;0.40;0.40;;;;;;;23.07;33.21;99383.89;1879850;75;27901;-53
2023/03/16 00:27:14;;;;;;;0.40;0.40;;;;;;;23.07;33.20;99374.83;1870100;75;27755;-55
2023/03/16 00:30:02;;;;;;;0.30;0.30;;;;;;;23.09;33.24;99380.90;1857076;75;27694;-55
2023/03/16 00:32:52;;;;;;;0.30;0.30;;;;;;;23.10;33.27;99388.06;1855820;76;27778;-55
2023/03/16 00:35:49;;;;;;;0.40;0.40;;;;;;;23.10;33.27;99388.06;1855674;76;28189;-52
2023/03/16 00:38:36;;;;;;;0.40;0.40;;;;;;;23.09;33.22;99380.37;1802466;79;28211;-55
2023/03/16 00:41:25;;;;;;;0.47;0.47;;;;;;;23.08;33.21;99386.10;1844754;77;28184;-56
2023/03/16 00:44:13;;;;;;;0.40;0.40;;;;;;;23.07;33.28;99390.74;1803941;77;28234;-53
2023/03/16 00:47:02;;;;;;;0.93;0.40;;;;;;;23.09;33.25;99386.38;1802207;79;34132;-53
2023/03/16 00:49:51;;;;;;;1.40;0.40;;;;;;;23.10;33.25;99382.58;1854893;76;28133;-56
2023/03/16 00:52:41;;;;;;;0.50;0.50;;;;;;;23.10;33.26;99381.21;1848120;77;28733;-52
2023/03/16 00:55:29;;;;;;;1.15;0.50;;;;;;;23.09;33.24;99380.90;1845056;76;28138;-56
2023/03/16 00:58:18;;;;;;;0.70;0.50;;;;;;;23.09;33.26;99379.53;1850522;77;28183;-54
2023/03/16 01:01:10;;;;;;;0.50;0.35;;;;;;;23.10;33.26;99373.83;1799624;79;28319;-54
2023/03/16 01:03:59;;;;;;;0.50;0.50;;;;;;;23.09;33.26;99373.52;1792645;78;28256;-54
2023/03/16 01:06:48;;;;;;;0.70;0.50;;;;;;;23.08;33.28;99369.66;1854129;76;28130;-55
2023/03/16 01:09:37;;;;;;;0.30;0.30;;;;;;;23.11;33.28;99370.00;1848505;76;28288;-56
2023/03/16 01:12:25;;;;;;;0.50;0.50;;;;;;;23.10;33.28;99371.09;1846462;76;28214;-55
2023/03/16 01:15:14;;;;;;;0.40;0.40;;;;;;;23.12;33.25;99363.45;1846172;76;28152;-56
2023/03/16 01:18:02;;;;;;;0.45;0.45;;;;;;;23.12;33.25;99353.03;1804936;79;29342;-55
2023/03/16 01:20:52;;;;;;;0.50;0.50;;;;;;;23.10;33.20;99353.28;1842627;77;28196;-53
2023/03/16 01:23:42;;;;;;;0.50;0.50;;;;;;;23.10;33.19;99352.44;1846024;76;28330;-55
2023/03/16 01:26:33;;;;;;;1.55;0.28;;;;;;;23.09;33.24;99359.82;1851636;76;28125;-54
2023/03/16 01:29:21;;;;;;;0.42;0.42;;;;;;;23.07;33.27;99363.88;1845856;76;28178;-55
2023/03/16 01:32:12;;;;;;;0.53;0.40;;;;;;;23.08;33.30;99358.14;1849951;77;28156;-57
2023/03/16 01:35:00;;;;;;;0.60;0.45;;;;;;;23.08;33.30;99364.18;1848881;76;28199;-55
2023/03/16 01:37:50;;;;;;;0.40;0.40;;;;;;;23.09;33.30;99365.30;1838649;77;28248;-58
2023/03/16 01:40:40;;;;;;;0.40;0.40;;;;;;;23.11;33.30;99364.52;1823444;76;28190;-55
2023/03/16 01:43:33;;;;;;;0.50;0.50;;;;;;;23.11;33.27;99350.81;1843930;77;28243;-55
2023/03/16 01:46:25;;;;;;;0.33;0.33;;;;;;;23.11;33.27;99353.56;1818980;77;28207;-55
2023/03/16 01:49:19;;;;;;;0.40;0.40;;;;;;;23.08;33.25;99350.48;1824287;77;38516;-55
2023/03/16 01:52:11;;;;;;;0.25;0.25;;;;;;;23.07;33.34;99345.53;1831665;77;28143;-54
2023/03/16 01:55:03;;;;;;;0.40;0.40;;;;;;;23.09;33.30;99345.28;1852771;76;28256;-52
2023/03/16 01:57:52;;;;;;;0.50;0.50;;;;;;;23.08;33.30;99338.96;1831090;77;28238;-55
2023/03/16 02:00:41;;;;;;;0.60;0.60;;;;;;;23.09;33.31;99348.86;1824317;77;28174;-52
2023/03/16 02:03:33;;;;;;;0.30;0.30;;;;;;;23.07;33.40;99348.27;1846019;77;28267;-53
2023/03/16 02:06:23;;;;;;;0.90;0.60;;;;;;;23.06;33.31;99345.23;1845696;77;28588;-54
2023/03/16 02:09:15;;;;;;;0.50;0.40;;;;;;;23.02;33.41;99341.84;1848628;77;28138;-53
2023/03/16 02:12:04;;;;;;;0.50;0.45;;;;;;;23.01;33.46;99339.63;1849381;76;28235;-51
2023/03/16 02:14:55;;;;;;;0.47;0.47;;;;;;;23.03;33.45;99347.09;1822547;77;28435;-52
2023/03/16 02:17:45;;;;;;;0.40;0.40;;;;;;;22.98;33.49;99331.92;1822355;77;28234;-54
2023/03/16 02:20:41;;;;;;;0.70;0.50;;;;;;;23.01;33.50;99331.97;1826286;77;28195;-53
2023/03/16 02:23:31;;;;;;;0.40;0.40;;;;;;;23.00;33.50;99346.20;1816300;77;28239;-52
2023/03/16 02:26:44;;;;;;;0.40;0.40;;;;;;;22.99;33.56;99340.41;1821161;77;28276;-53
2023/03/16 02:29:43;;;;;;;0.35;0.35;;;;;;;22.96;33.58;99334.06;1839091;76;28323;-52
2023/03/16 02:32:33;;;;;;;0.45;0.45;;;;;;;22.94;33.68;99336.19;1848479;77;28135;-53
2023/03/16 02:35:22;;;;;;;0.47;0.47;;;;;;;22.95;33.66;99347.45;1833411;76;28559;-55
2023/03/16 02:38:11;;;;;;;0.35;0.35;;;;;;;22.94;33.66;99344.41;1793543;78;28292;-52
2023/03/16 02:41:13;;;;;;;0.77;0.50;;;;;;;22.95;33.66;99346.61;1822120;77;28233;-54
2023/03/16 02:44:23;;;;;;;0.42;0.42;;;;;;;22.95;33.66;99350.72;1816404;78;28324;-50
2023/03/16 02:47:15;;;;;;;0.30;0.30;;;;;;;22.93;33.71;99346.87;1818459;78;28274;-53
2023/03/16 02:50:05;;;;;;;0.30;0.30;;;;;;;22.93;33.72;99341.92;1812067;78;28790;-52
2023/03/16 02:52:53;;;;;;;1.40;0.40;;;;;;;22.91;33.74;99335.32;1821896;78;28213;-54
2023/03/16 02:55:42;;;;;;;0.35;0.35;;;;;;;22.94;33.72;99340.30;1790393;78;28314;-54
2023/03/16 02:58:31;;;;;;;0.40;0.40;;;;;;;22.94;33.71;99340.30;1802620;78;28288;-53
2023/03/16 03:01:21;;;;;;;0.33;0.33;;;;;;;22.92;33.78;99336.16;1813469;78;28338;-51
2023/03/16 03:04:10;;;;;;;0.40;0.33;;;;;;;22.91;33.76;99332.58;1819489;78;28319;-56
2023/03/16 03:07:03;;;;;;;0.43;0.43;;;;;;;22.89;33.67;99331.16;1779472;79;28401;-53
2023/03/16 03:09:52;;;;;;;0.60;0.40;;;;;;;22.92;33.71;99327.38;1780914;79;28353;-55
2023/03/16 03:12:39;;;;;;;0.53;0.53;;;;;;;22.92;33.71;99326.58;1847230;77;28159;-53
2023/03/16 03:15:30;;;;;;;1.30;0.40;;;;;;;22.88;33.78;99326.20;1829648;77;27858;-52
2023/03/16 03:18:20;;;;;;;0.40;0.40;;;;;;;22.90;33.78;99335.54;1855851;77;27849;-56
2023/03/16 03:21:08;;;;;;;0.30;0.30;;;;;;;22.89;33.80;99329.78;1852431;75;27975;-56
2023/03/16 03:23:57;;;;;;;0.40;0.40;;;;;;;22.91;33.76;99325.73;1853777;76;38289;-55
2023/03/16 03:26:45;;;;;;;0.42;0.42;;;;;;;22.91;33.76;99313.41;1837686;77;28251;-56
2023/03/16 03:29:35;;;;;;;0.30;0.30;;;;;;;22.91;33.74;99318.89;1842044;77;28146;-55
2023/03/16 03:32:23;;;;;;;0.40;0.40;;;;;;;22.91;33.78;99319.41;1844801;75;27746;-54
2023/03/16 03:35:14;;;;;;;0.35;0.33;;;;;;;22.88;33.81;99319.36;1836695;75;27770;-51
2023/03/16 03:38:03;;;;;;;0.42;0.42;;;;;;;22.90;33.81;99313.63;1833355;76;28213;-53
2023/03/16 03:40:53;;;;;;;0.50;0.50;;;;;;;22.90;33.82;99321.84;1841382;77;28131;-54
2023/03/16 03:43:41;;;;;;;0.42;0.42;;;;;;;22.88;33.80;99315.25;1833781;77;28829;-53
2023/03/16 03:46:31;;;;;;;0.40;0.40;;;;;;;22.90;33.79;99309.52;1825806;77;28238;-54
2023/03/16 03:49:20;;;;;;;0.20;0.20;;;;;;;22.89;33.77;99316.09;1827175;77;28171;-54
2023/03/16 03:52:09;;;;;;;0.40;0.40;;;;;;;22.88;33.78;99324.84;1840070;77;28252;-51
2023/03/16 03:54:57;;;;;;;0.60;0.60;;;;;;;22.86;33.81;99318.77;1828044;76;28198;-51
2023/03/16 03:57:46;;;;;;;0.50;0.50;;;;;;;22.87;33.81;99324.53;1821396;77;28119;-53
2023/03/16 04:00:35;;;;;;;0.28;0.28;;;;;;;22.87;33.82;99317.67;1826350;77;28290;-53
2023/03/16 04:03:23;;;;;;;0.30;0.30;;;;;;;22.85;33.81;99312.98;1832360;77;28306;-54
2023/03/16 04:06:12;;;;;;;0.47;0.47;;;;;;;22.87;33.80;99314.13;1833495;77;28163;-49
2023/03/16 04:09:00;;;;;;;0.50;0.40;;;;;;;22.86;33.80;99309.72;1833942;76;31232;-54
2023/03/16 04:11:49;;;;;;;0.82;0.35;;;;;;;22.86;33.85;99311.92;1814273;77;28195;-54
2023/03/16 04:14:38;;;;;;;1.27;0.40;;;;;;;22.86;33.88;99315.19;1826941;76;28204;-52
2023/03/16 04:17:28;;;;;;;0.40;0.40;;;;;;;22.86;33.90;99317.41;1825219;77;38575;-53
2023/03/16 04:20:19;;;;;;;0.60;0.50;;;;;;;22.85;33.87;99321.20;1820157;77;28136;-53
2023/03/16 04:23:08;;;;;;;0.40;0.40;;;;;;;22.85;33.92;99319.83;1827107;77;28206;-53
2023/03/16 04:25:59;;;;;;;0.50;0.50;;;;;;;22.84;33.87;99315.97;1818837;77;28132;-54
2023/03/16 04:28:48;;;;;;;0.30;0.30;;;;;;;22.83;33.88;99319.77;1824074;77;28289;-54
2023/03/16 04:31:38;;;;;;;0.70;0.50;;;;;;;22.84;33.91;99320.92;1821082;77;28309;-54
2023/03/16 04:34:28;;;;;;;0.45;0.45;;;;;;;22.84;33.93;99321.45;1817144;77;28255;-52
2023/03/16 04:37:18;;;;;;;0.42;0.42;;;;;;;22.84;33.88;99323.66;1828601;77;28420;-52
2023/03/16 04:40:14;;;;;;;0.40;0.40;;;;;;;22.86;33.88;99332.99;1812321;76;28360;-55
2023/03/16 04:42:58;;;;;;;0.40;0.40;;;;;;;22.85;33.87;99325.31;1823120;78;28369;-54
2023/03/16 04:45:47;;;;;;;0.40;0.40;;;;;;;22.78;33.91;99307.36;1832314;78;28253;-54
2023/03/16 04:48:36;;;;;;;0.30;0.30;;;;;;;22.82;33.89;99323.59;1817934;78;28489;-55
2023/03/16 04:51:27;;;;;;;0.50;0.50;;;;;;;22.81;33.93;99330.98;1821481;76;28208;-51
2023/03/16 04:54:19;;;;;;;0.50;0.50;;;;;;;22.81;33.89;99328.77;1820297;77;28074;-53
2023/03/16 04:57:09;;;;;;;0.50;0.50;;;;;;;22.82;33.89;99328.55;1798611;79;28294;-51
2023/03/16 05:00:08;;;;;;;0.40;0.40;;;;;;;22.81;33.92;99332.34;1832112;78;28211;-55
2023/03/16 05:02:53;;;;;;;0.40;0.40;;;;;;;22.81;33.93;99335.09;1835837;76;28352;-54
2023/03/16 05:05:45;;;;;;;0.60;0.60;;;;;;;22.81;33.94;99328.23;1823197;78;28329;-53
2023/03/16 05:08:36;;;;;;;0.42;0.42;;;;;;;22.80;33.96;99325.19;1815986;76;38605;-53
2023/03/16 05:11:25;;;;;;;0.40;0.40;;;;;;;22.80;34.00;99324.38;1817428;78;28363;-52
2023/03/16 05:14:15;;;;;;;0.30;0.30;;;;;;;22.80;33.97;99323.02;1832613;78;28253;-55
2023/03/16 05:17:08;;;;;;;0.50;0.50;;;;;;;22.80;33.97;99319.72;1815103;78;28349;-52
2023/03/16 05:19:56;;;;;;;0.40;0.40;;;;;;;22.81;33.98;99315.91;1826135;78;28281;-52
2023/03/16 05:22:47;;;;;;;0.40;0.40;;;;;;;22.81;33.95;99318.66;1808668;78;28295;-55
2023/03/16 05:25:39;;;;;;;0.50;0.42;;;;;;;22.80;33.95;99318.34;1820731;77;28345;-52
2023/03/16 05:28:29;;;;;;;0.30;0.30;;;;;;;22.82;33.75;99312.12;1833069;78;28357;-54
2023/03/16 05:31:20;;;;;;;0.90;0.47;;;;;;;22.82;33.57;99316.75;1825989;78;28294;-54
2023/03/16 05:34:11;;;;;;;0.37;0.37;;;;;;;22.82;33.57;99316.75;1824528;78;28185;-54
2023/03/16 05:37:00;;;;;;;0.40;0.40;;;;;;;22.80;34.06;99324.38;1821136;78;28273;-53
2023/03/16 05:39:49;;;;;;;0.40;0.40;;;;;;;22.82;34.07;99326.34;1850124;76;28204;-54
2023/03/16 05:42:37;;;;;;;0.47;0.47;;;;;;;22.80;34.10;99316.97;1826417;77;28340;-55
2023/03/16 05:45:26;;;;;;;0.40;0.40;;;;;;;22.81;34.08;99321.92;1829464;77;28236;-55
2023/03/16 05:48:20;;;;;;;0.40;0.40;;;;;;;22.79;34.04;99323.55;1826700;77;28711;-54
2023/03/16 05:51:10;;;;;;;0.93;0.45;;;;;;;22.79;34.12;99325.44;1836565;76;28237;-52
2023/03/16 05:53:58;;;;;;;0.40;0.40;;;;;;;22.78;34.15;99330.08;1822382;76;28131;-53
2023/03/16 05:56:48;;;;;;;0.60;0.60;;;;;;;22.79;34.13;99329.55;1833488;77;28137;-53
2023/03/16 05:59:37;;;;;;;0.50;0.50;;;;;;;22.79;34.09;99333.66;1798399;79;28379;-52
2023/03/16 06:02:25;;;;;;;0.45;0.45;;;;;;;22.76;34.11;99325.91;1830148;77;28277;-53
2023/03/16 06:05:15;;;;;;;0.57;0.57;;;;;;;22.79;34.17;99326.81;1811627;78;30218;-55
2023/03/16 06:08:04;;;;;;;0.30;0.30;;;;;;;22.77;34.22;99328.43;1826144;77;28290;-54
2023/03/16 06:10:53;;;;;;;0.80;0.30;;;;;;;22.77;34.21;99339.38;1833503;77;28204;-54
2023/03/16 06:13:42;;;;;;;0.35;0.35;;;;;;;22.77;34.23;99336.64;1800740;77;28344;-55
2023/03/16 06:16:31;;;;;;;0.30;0.30;;;;;;;22.77;34.20;99342.66;1822460;77;28247;-54
2023/03/16 06:19:20;;;;;;;0.42;0.42;;;;;;;22.74;34.26;99336.27;1828017;77;28209;-54
2023/03/16 06:22:10;;;;;;;0.98;0.42;;;;;;;22.78;34.20;99345.70;1778395;79;28579;-50
2023/03/16 06:24:59;;;;;;;0.40;0.40;;;;;;;22.75;34.25;99342.91;1818967;77;28298;-53
2023/03/16 06:27:48;;;;;;;3.30;0.50;;;;;;;22.74;34.24;99339.85;1807674;78;28217;-49
2023/03/16 06:30:38;;;;;;;0.50;0.50;;;;;;;22.76;34.23;99343.18;1800191;78;28450;-52
2023/03/16 06:33:26;;;;;;;0.60;0.60;;;;;;;22.74;33.45;99352.17;1802705;78;28381;-52
2023/03/16 06:36:14;;;;;;;0.78;0.78;;;;;;;22.74;32.75;99347.23;1805969;78;28293;-53
2023/03/16 06:39:05;;;;;;;0.50;0.50;;;;;;;22.73;31.49;99349.69;1833912;77;38478;-53
2023/03/16 06:42:03;;;;;;;0.57;0.55;;;;;;;22.73;31.77;99349.16;1834551;76;28272;-51
2023/03/16 06:44:51;;;;;;;0.80;0.80;;;;;;;22.68;31.78;99359.98;1869071;76;27690;-52
2023/03/16 06:47:40;;;;;;;0.70;0.70;;;;;;;22.65;30.68;99353.08;1864770;75;27787;-54
2023/03/16 06:50:28;;;;;;;0.72;0.72;;;;;;;22.69;30.58;99356.16;1881373;76;28249;-55
2023/03/16 06:53:17;;;;;;;0.47;0.47;;;;;;;22.71;30.71;99355.38;1879397;74;27702;-50
2023/03/16 06:56:07;;;;;;;0.63;0.63;;;;;;;22.71;30.96;99355.38;1853042;76;28090;-48
2023/03/16 06:58:57;;;;;;;0.57;0.57;;;;;;;22.67;31.65;99355.05;1868478;76;27772;-51
2023/03/16 07:01:45;;;;;;;0.70;0.70;;;;;;;22.71;31.57;99354.58;1877526;76;27883;-49
2023/03/16 07:04:34;;;;;;;0.88;0.85;;;;;;;22.71;31.66;99358.69;1859968;76;28271;-53
2023/03/16 07:07:23;;;;;;;0.70;0.55;;;;;;;22.68;32.32;99358.62;1866089;74;27725;-51
2023/03/16 07:10:18;;;;;;;0.45;0.45;;;;;;;22.71;32.47;99359.48;1878835;76;27796;-51
2023/03/16 07:13:06;;;;;;;0.50;0.50;;;;;;;22.71;32.75;99362.78;1880792;76;27780;-55
2023/03/16 07:15:54;;;;;;;0.70;0.70;;;;;;;22.73;32.93;99364.22;1878805;76;27804;-54
2023/03/16 07:18:43;;;;;;;0.70;0.55;;;;;;;22.75;32.92;99363.44;1872930;76;27702;-55
2023/03/16 07:21:38;;;;;;;1.60;0.57;;;;;;;22.75;32.94;99360.70;1866870;76;27738;-53
2023/03/16 07:24:25;;;;;;;0.50;0.50;;;;;;;22.77;33.04;99359.92;1878274;74;27835;-51
2023/03/16 07:27:14;;;;;;;0.50;0.50;;;;;;;22.79;33.36;99356.41;1873695;76;27745;-54
2023/03/16 07:30:05;;;;;;;1.10;0.68;;;;;;;22.83;33.39;99356.22;1881460;75;28062;-54
2023/03/16 07:32:56;;;;;;;0.42;0.42;;;;;;;22.81;33.38;99361.10;1874238;76;27706;-50
2023/03/16 07:35:44;;;;;;;1.37;0.80;;;;;;;22.78;33.30;99354.72;1881288;75;27725;-53
2023/03/16 07:38:34;;;;;;;0.70;0.70;;;;;;;22.77;33.32;99359.08;1873514;76;27807;-49
2023/03/16 07:41:24;;;;;;;0.62;0.62;;;;;;;22.76;33.77;99355.50;1873794;76;28212;-53
2023/03/16 07:44:13;;;;;;;0.53;0.53;;;;;;;22.77;33.99;99357.19;1853886;76;28062;-51
2023/03/16 07:47:02;;;;;;;2.80;0.93;;;;;;;22.78;34.19;99356.09;1833051;77;28294;-57
2023/03/16 07:49:51;;;;;;;1.05;0.62;;;;;;;22.77;34.30;99346.23;1819358;77;38499;-57
2023/03/16 07:52:40;;;;;;;0.75;0.72;;;;;;;22.77;34.57;99348.97;1832849;77;28231;-52
2023/03/16 07:55:29;;;;;;;0.60;0.60;;;;;;;22.76;34.81;99352.77;1811954;78;28240;-55
2023/03/16 07:58:19;;;;;;;1.10;0.68;;;;;;;22.79;34.93;99352.30;1832248;77;28346;-53
2023/03/16 08:01:10;;;;;;;0.50;0.50;;;;;;;22.78;34.93;99351.18;1821466;77;28284;-53
2023/03/16 08:03:59;;;;;;;0.98;0.60;;;;;;;22.77;35.07;99348.97;1805857;78;28297;-54
2023/03/16 08:06:47;;;;;;;3.80;0.67;;;;;;;22.77;35.08;99345.39;1806925;78;28389;-54
2023/03/16 08:09:36;;;;;;;0.50;0.50;;;;;;;22.77;35.08;99344.02;1790592;78;28423;-56
2023/03/16 08:12:25;;;;;;;0.50;0.50;;;;;;;22.80;35.10;99338.08;1809820;78;28838;-53
2023/03/16 08:15:14;;;;;;;0.60;0.60;;;;;;;22.77;35.21;99333.91;1826250;77;28255;-55
2023/03/16 08:18:05;;;;;;;1.55;0.80;;;;;;;22.76;35.16;99340.44;1773093;79;28367;-55
2023/03/16 08:20:55;;;;;;;0.60;0.60;;;;;;;22.78;35.21;99336.12;1821017;77;28715;-53
2023/03/16 08:23:48;;;;;;;0.50;0.50;;;;;;;22.77;35.21;99333.06;1831752;77;28213;-55
2023/03/16 08:26:33;;;;;;;0.40;0.40;;;;;;;22.76;35.17;99330.86;1826517;77;28234;-55
2023/03/16 08:29:25;;;;;;;0.72;0.55;;;;;;;22.77;35.23;99337.17;1787526;79;28293;-56
2023/03/16 08:32:14;;;;;;;1.47;0.70;;;;;;;22.77;35.21;99331.17;1824060;77;28512;-54
2023/03/16 08:35:05;;;;;;;0.55;0.55;;;;;;;22.75;35.27;99326.47;1836718;77;28370;-54
2023/03/16 08:37:55;;;;;;;0.60;0.60;;;;;;;22.77;35.26;99331.17;1828478;77;28251;-54
2023/03/16 08:40:47;;;;;;;0.68;0.60;;;;;;;22.78;35.22;99329.27;1837057;77;28158;-55
2023/03/16 08:43:37;;;;;;;0.60;0.60;;;;;;;22.70;35.21;99315.40;1820502;77;28163;-52
2023/03/16 08:46:26;;;;;;;0.88;0.40;;;;;;;22.77;35.24;99324.85;1833649;77;28204;-55
2023/03/16 08:49:19;;;;;;;1.30;0.53;;;;;;;22.76;35.24;99330.02;1833989;77;28210;-55
2023/03/16 08:52:14;;;;;;;0.45;0.45;;;;;;;22.76;35.23;99329.48;1821995;77;28159;-53
2023/03/16 08:54:58;;;;;;;0.45;0.45;;;;;;;22.76;35.29;99324.02;1819832;77;31196;-55
2023/03/16 08:57:47;;;;;;;0.42;0.42;;;;;;;22.77;35.25;99325.69;1839985;77;28279;-54
2023/03/16 09:00:37;;;;;;;0.70;0.60;;;;;;;22.77;35.25;99318.00;1834147;77;28168;-51
2023/03/16 09:03:26;;;;;;;0.72;0.70;;;;;;;22.75;35.25;99319.62;1837995;77;28223;-54
2023/03/16 09:06:17;;;;;;;0.68;0.57;;;;;;;22.77;35.26;99325.69;1829143;77;28386;-54
2023/03/16 09:09:05;;;;;;;1.30;0.60;;;;;;;22.78;35.24;99323.80;1832162;77;28160;-52
2023/03/16 09:11:54;;;;;;;0.57;0.57;;;;;;;22.79;35.22;99324.07;1830839;77;28232;-55
2023/03/16 09:14:42;;;;;;;1.72;0.70;;;;;;;22.79;35.21;99323.55;1839853;77;28126;-52
2023/03/16 09:17:30;;;;;;;0.50;0.50;;;;;;;22.78;35.22;99324.59;1840085;77;28230;-54
2023/03/16 09:20:19;;;;;;;1.67;0.50;;;;;;;22.77;35.20;99322.95;1819871;77;28238;-55
2023/03/16 09:23:08;;;;;;;0.75;0.60;;;;;;;22.77;35.19;99322.11;1834847;77;28277;-53
2023/03/16 09:26:01;;;;;;;0.65;0.42;;;;;;;22.78;35.17;99328.70;1824140;77;28287;-54
2023/03/16 09:28:50;;;;;;;1.00;0.77;;;;;;;22.80;35.17;99322.45;1816785;77;28315;-54
2023/03/16 09:31:38;;;;;;;0.53;0.53;;;;;;;22.80;35.19;99318.34;1823937;77;28250;-55
2023/03/16 09:34:26;;;;;;;0.47;0.47;;;;;;;22.79;35.18;99315.86;1828651;77;28591;-55
2023/03/16 09:37:15;;;;;;;0.57;0.50;;;;;;;22.79;35.17;99312.59;1834003;77;30210;-53
2023/03/16 09:40:05;;;;;;;0.30;0.30;;;;;;;22.78;35.13;99306.80;1829636;77;28250;-53
2023/03/16 09:43:25;;;;;;;0.57;0.57;;;;;;;22.80;35.16;99304.66;1826645;77;28217;-55
2023/03/16 09:46:26;;;;;;;0.90;0.55;;;;;;;22.76;35.09;99292.52;1817751;77;38460;-53
2023/03/16 09:49:18;;;;;;;0.80;0.57;;;;;;;22.75;35.17;99301.83;1801384;77;28219;-52
2023/03/16 09:52:13;;;;;;;0.50;0.50;;;;;;;22.73;35.18;99293.02;1832235;77;28190;-54
2023/03/16 09:55:07;;;;;;;0.57;0.57;;;;;;;22.73;35.20;99288.91;1826479;77;28273;-55
2023/03/16 09:57:57;;;;;;;0.55;0.55;;;;;;;22.75;35.17;99286.77;1815960;77;28257;-54
2023/03/16 10:01:08;;;;;;;0.47;0.47;;;;;;;22.75;35.16;99273.08;1824496;77;28192;-54
2023/03/16 10:04:21;;;;;;;0.70;0.60;;;;;;;22.78;35.10;99269.83;1824257;77;28302;-53
2023/03/16 10:07:19;;;;;;;1.10;0.50;;;;;;;22.75;35.15;99268.97;1805993;77;28327;-53
2023/03/16 10:10:23;;;;;;;0.50;0.50;;;;;;;22.72;35.13;99258.48;1827598;77;28209;-54
2023/03/16 10:13:20;;;;;;;0.35;0.35;;;;;;;22.75;35.13;99264.86;1778930;77;28322;-54
2023/03/16 10:16:23;;;;;;;0.50;0.50;;;;;;;22.73;35.14;99258.80;1833825;76;28248;-54
2023/03/16 10:19:33;;;;;;;1.00;0.60;;;;;;;22.72;35.08;99251.64;1826443;77;28244;-53
2023/03/16 10:22:30;;;;;;;0.55;0.50;;;;;;;22.75;35.10;99250.33;1776231;77;28284;-56
2023/03/16 10:25:29;;;;;;;0.90;0.70;;;;;;;22.73;35.14;99242.37;1823964;77;28456;-55
2023/03/16 10:28:21;;;;;;;0.40;0.40;;;;;;;22.73;35.11;99236.89;1829687;77;28287;-54
2023/03/16 10:31:12;;;;;;;1.30;0.68;;;;;;;22.74;35.08;99230.32;1832806;77;28224;-54
2023/03/16 10:34:04;;;;;;;0.50;0.50;;;;;;;22.75;35.08;99225.16;1812751;77;28241;-54
2023/03/16 10:36:54;;;;;;;0.53;0.53;;;;;;;22.76;35.05;99224.59;1833338;77;28152;-54
2023/03/16 10:39:42;;;;;;;0.50;0.50;;;;;;;22.78;35.03;99223.28;1827685;77;28135;-53
2023/03/16 10:42:31;;;;;;;0.50;0.50;;;;;;;22.79;35.04;99207.69;1834340;77;28131;-52
2023/03/16 10:45:25;;;;;;;0.40;0.40;;;;;;;22.79;35.04;99202.20;1848592;75;28270;-52
2023/03/16 10:48:19;;;;;;;0.60;0.60;;;;;;;22.80;34.94;99201.95;1821064;77;28209;-57
2023/03/16 10:51:17;;;;;;;0.30;0.30;;;;;;;22.81;34.99;99202.80;1829061;77;28296;-54
2023/03/16 10:54:18;;;;;;;2.07;0.50;;;;;;;22.80;34.99;99200.59;1836956;77;27779;-53
2023/03/16 10:57:25;;;;;;;0.40;0.40;;;;;;;22.76;34.81;99184.89;1856696;77;28132;-53
2023/03/16 11:00:19;;;;;;;0.50;0.50;;;;;;;22.76;34.81;99184.89;1856495;77;27771;-54
2023/03/16 11:03:15;;;;;;;0.80;0.47;;;;;;;22.78;34.97;99190.42;1852101;77;27969;-53
2023/03/16 11:06:06;;;;;;;0.50;0.50;;;;;;;22.78;34.99;99186.31;1844271;75;27705;-55
2023/03/16 11:08:56;;;;;;;0.62;0.62;;;;;;;22.78;34.99;99182.20;1853770;77;28181;-54
2023/03/16 11:11:49;;;;;;;0.40;0.40;;;;;;;22.81;34.94;99183.63;1842224;75;27766;-54
2023/03/16 11:14:37;;;;;;;0.50;0.50;;;;;;;22.81;34.87;99177.62;1838071;77;27694;-51
2023/03/16 11:17:34;;;;;;;0.40;0.40;;;;;;;22.81;34.90;99180.36;1856764;77;27688;-53
2023/03/16 11:20:27;;;;;;;0.47;0.47;;;;;;;22.83;34.89;99178.73;1856639;77;27699;-54
2023/03/16 11:23:18;;;;;;;0.33;0.33;;;;;;;22.79;34.94;99171.55;1850067;77;28266;-54
2023/03/16 11:26:09;;;;;;;1.00;0.40;;;;;;;22.81;34.91;99173.51;1841472;77;28208;-56
2023/03/16 11:29:01;;;;;;;0.40;0.40;;;;;;;22.83;34.88;99170.52;1848519;77;28055;-53
2023/03/16 11:31:52;;;;;;;0.60;0.47;;;;;;;22.84;34.84;99170.30;1857012;75;27699;-54
2023/03/16 11:34:42;;;;;;;0.42;0.42;;;;;;;22.78;34.85;99153.45;1840404;77;27689;-54
2023/03/16 11:37:37;;;;;;;0.47;0.47;;;;;;;22.77;34.85;99153.17;1856742;77;27739;-52
2023/03/16 11:40:46;;;;;;;0.40;0.40;;;;;;;22.85;34.80;99157.44;1851428;77;27696;-52
2023/03/16 11:43:49;;;;;;;0.50;0.50;;;;;;;22.84;34.83;99160.70;1850280;77;27806;-57
2023/03/16 11:46:41;;;;;;;0.47;0.47;;;;;;;22.82;34.83;99162.86;1852040;77;27789;-53
2023/03/16 11:49:43;;;;;;;0.50;0.50;;;;;;;22.80;34.82;99155.41;1856006;77;28180;-54
2023/03/16 11:52:40;;;;;;;0.53;0.53;;;;;;;22.80;34.88;99154.03;1848113;77;27742;-54
2023/03/16 11:55:43;;;;;;;0.60;0.60;;;;;;;22.81;34.86;99148.02;1847220;75;28188;-55
2023/03/16 11:58:54;;;;;;;0.42;0.35;;;;;;;22.83;34.85;99152.72;1853572;77;27707;-53
2023/03/16 12:01:49;;;;;;;0.33;0.33;;;;;;;22.81;34.83;99151.60;1850095;77;27835;-55
2023/03/16 12:04:45;;;;;;;0.50;0.50;;;;;;;22.79;34.87;99148.81;1853595;76;27794;-55
2023/03/16 12:07:55;;;;;;;0.50;0.50;;;;;;;22.80;34.85;99147.19;1856264;77;27699;-56
2023/03/16 12:10:53;;;;;;;0.55;0.55;;;;;;;22.80;34.83;99138.97;1844932;77;27719;-53
2023/03/16 12:13:53;;;;;;;0.30;0.30;;;;;;;22.79;34.84;99140.59;1853665;77;27785;-55
2023/03/16 12:17:07;;;;;;;0.50;0.50;;;;;;;22.79;34.84;99138.70;1836852;77;27744;-54
2023/03/16 12:20:04;;;;;;;0.40;0.40;;;;;;;22.79;34.82;99127.74;1837837;77;27758;-52
2023/03/16 12:22:59;;;;;;;0.40;0.40;;;;;;;22.78;34.80;99131.55;1856276;77;28137;-55
2023/03/16 12:25:49;;;;;;;0.53;0.53;;;;;;;22.80;34.79;99123.11;1853026;76;28227;-51
2023/03/16 12:28:40;;;;;;;0.53;0.53;;;;;;;22.79;34.78;99120.89;1850881;77;27809;-54
2023/03/16 12:31:48;;;;;;;0.60;0.60;;;;;;;22.82;34.74;99120.95;1853457;75;28975;-53
2023/03/16 12:34:45;;;;;;;0.60;0.60;;;;;;;22.82;34.72;99103.98;1850541;77;28106;-54
2023/03/16 12:37:40;;;;;;;0.50;0.50;;;;;;;22.82;34.71;99103.15;1855538;77;27738;-56
2023/03/16 12:40:40;;;;;;;0.40;0.40;;;;;;;22.81;34.68;99102.31;1817753;77;27778;-53
2023/03/16 12:43:41;;;;;;;0.85;0.40;;;;;;;22.81;34.71;99095.47;1855653;77;27821;-52
2023/03/16 12:46:35;;;;;;;0.40;0.40;;;;;;;22.82;34.72;99091.66;1844737;76;27777;-55
2023/03/16 12:49:27;;;;;;;1.10;0.30;;;;;;;22.82;34.68;99083.98;1867767;76;28170;-53
2023/03/16 12:52:16;;;;;;;0.30;0.30;;;;;;;22.83;34.64;99080.98;1884048;74;27697;-54
2023/03/16 12:55:16;;;;;;;0.50;0.50;;;;;;;22.84;34.63;99080.45;1872111;76;27718;-56
2023/03/16 12:58:08;;;;;;;0.50;0.50;;;;;;;22.85;34.62;99073.91;1856022;76;27678;-52
2023/03/16 13:00:59;;;;;;;0.50;0.50;;;;;;;22.85;34.62;99075.28;1856381;76;28195;-53
2023/03/16 13:03:49;;;;;;;0.50;0.50;;;;;;;22.85;34.56;99069.23;1873464;76;30056;-54
2023/03/16 13:06:39;;;;;;;0.95;0.53;;;;;;;22.84;34.56;99065.39;1873334;76;28220;-54
2023/03/16 13:09:35;;;;;;;0.40;0.40;;;;;;;22.87;34.55;99062.17;1861520;76;28211;-49
2023/03/16 13:12:37;;;;;;;0.40;0.30;;;;;;;22.86;34.53;99054.48;1863630;76;27779;-51
2023/03/16 13:15:24;;;;;;;0.40;0.40;;;;;;;22.87;34.51;99052.02;1861892;76;27786;-54
2023/03/16 13:18:18;;;;;;;0.40;0.33;;;;;;;22.85;34.52;99045.96;1878080;76;27847;-53
2023/03/16 13:21:19;;;;;;;0.55;0.55;;;;;;;22.85;34.51;99045.16;1871504;76;28187;-54
2023/03/16 13:24:20;;;;;;;0.30;0.30;;;;;;;22.84;34.52;99041.58;1870272;76;27769;-55
2023/03/16 13:27:34;;;;;;;0.50;0.50;;;;;;;22.86;34.53;99042.16;1865103;76;27698;-55
2023/03/16 13:30:26;;;;;;;0.40;0.40;;;;;;;22.85;34.49;99036.38;1852524;76;27942;-54